^^
Weerstation Genderen Historische Gegevens
 
Daily Summary for October 21, 2020 Units:  Metric    English   Both
Daily Weekly Monthly Yearly
  Current: High: Low: Average:
Temperature: 12.7 °C 13.6 °C 12.7 °C 13.2 °C
Dew Point: 11.8 °C 12.5 °C 11.8 °C 12.1 °C
Humidity: 94% 94% 92% 93%
Wind Speed: 4.4km/h 12.3km/h 0km/h 5.3km/h
Wind Gust: 1.6km/h 8.7km/h - -
WindSW - - SW
Pressure: 1004.3 hPa 1005.4 hPa 1004.3 hPa -
Precipitation: 0.2 mm      
 
 
Tabular Data for October 21, 2020
Time Temperature Dew Point Pressure Wind Wind Speed Wind Gust Humidity Rainfall Rate (Hourly) solar
00:04 13.6 °C 12.5 °C 1005.4 hPa SSW 11.1 km/h 8 km/h 93% 0.0 mm W/m2
00:09 13.6 °C 12.5 °C 1005.4 hPa SSW 12.3 km/h 8.7 km/h 93% 0.0 mm W/m2
00:14 13.6 °C 12.4 °C 1005.3 hPa SSW 9.8 km/h 6.9 km/h 92.8% 0.0 mm W/m2
00:19 13.6 °C 12.3 °C 1005.3 hPa SW 9.3 km/h 7.1 km/h 92% 0.0 mm W/m2
00:24 13.5 °C 12.2 °C 1005.3 hPa SSW 7.4 km/h 6.4 km/h 92% 0.0 mm W/m2
00:29 13.5 °C 12.2 °C 1005.3 hPa SSW 8.8 km/h 6.3 km/h 92% 0.0 mm W/m2
00:34 13.5 °C 12.4 °C 1005.4 hPa SSW 8.3 km/h 6 km/h 92.8% 0.0 mm W/m2
00:39 13.4 °C 12.3 °C 1005.4 hPa SSW 5.7 km/h 5.1 km/h 93% 0.0 mm W/m2
00:44 13.4 °C 12.3 °C 1005.4 hPa SSW 6.5 km/h 3.9 km/h 93% 0.0 mm W/m2
00:49 13.4 °C 12.3 °C 1005.3 hPa SW 6.2 km/h 5.1 km/h 93% 0.0 mm W/m2
00:54 13.4 °C 12.3 °C 1005.3 hPa SSW 8.4 km/h 4.8 km/h 93% 0.0 mm W/m2
00:59 13.3 °C 12.2 °C 1005.3 hPa SSW 6.4 km/h 4.7 km/h 93% 0.0 mm W/m2
01:04 13.3 °C 12.2 °C 1005.2 hPa SSW 5.8 km/h 3.9 km/h 93% 0.0 mm W/m2
01:09 13.4 °C 12.3 °C 1005.2 hPa SW 9 km/h 7.7 km/h 93% 0.0 mm W/m2
01:14 13.4 °C 12.3 °C 1005.1 hPa SW 7.7 km/h 6 km/h 93% 0.0 mm W/m2
01:19 13.4 °C 12.3 °C 1005.2 hPa SW 5.7 km/h 4 km/h 93% 0.0 mm W/m2
01:24 13.4 °C 12.2 °C 1005.2 hPa SW 5.7 km/h 4 km/h 93% 0.0 mm W/m2
01:29 13.3 °C 12.2 °C 1005.1 hPa SSW 5.1 km/h 3.7 km/h 93% 0.0 mm W/m2
01:34 13.3 °C 12.2 °C 1005.1 hPa SSW 4.4 km/h 4.2 km/h 93% 0.0 mm W/m2
01:39 13.3 °C 12.2 °C 1005.1 hPa SSW 5.8 km/h 5.1 km/h 93% 0.0 mm W/m2
01:44 13.3 °C 12.1 °C 1005.0 hPa SW 5.7 km/h 5 km/h 93% 0.0 mm W/m2
01:49 13.2 °C 12.1 °C 1005.0 hPa SW 5.4 km/h 3.2 km/h 93% 0.0 mm W/m2
01:54 13.2 °C 12.1 °C 1005.0 hPa SW 5.4 km/h 3.9 km/h 93% 0.0 mm W/m2
01:59 13.2 °C 12.1 °C 1004.9 hPa SW 3.4 km/h 1.4 km/h 93% 0.0 mm W/m2
02:04 13.1 °C 12 °C 1004.9 hPa SW 5.8 km/h 3.2 km/h 93% 0.0 mm W/m2
02:09 13.1 °C 12 °C 1004.9 hPa SW 5.2 km/h 3.4 km/h 93% 0.0 mm W/m2
02:14 13.1 °C 12 °C 1004.9 hPa SW 5.4 km/h 2.9 km/h 93% 0.0 mm W/m2
02:19 13.1 °C 11.9 °C 1004.9 hPa SW 4.1 km/h 2.7 km/h 93% 0.0 mm W/m2
02:24 13 °C 12 °C 1004.8 hPa SW 3.4 km/h 2.1 km/h 93.4% 0.0 mm W/m2
02:29 13 °C 12 °C 1004.9 hPa SW 1.6 km/h 1.1 km/h 93.9% 0.0 mm W/m2
02:34 13 °C 11.8 °C 1004.8 hPa SW 2.2 km/h 1.9 km/h 93% 0.0 mm W/m2
02:39 12.9 °C 12 °C 1004.8 hPa SW 3.6 km/h 0.8 km/h 93.9% 0.0 mm W/m2
02:44 12.9 °C 11.9 °C 1004.7 hPa Calm     94% 0.0 mm W/m2
02:49 12.8 °C 11.9 °C 1004.6 hPa SW 0.4 km/h 0.2 km/h 94% 0.0 mm W/m2
02:54 12.8 °C 11.9 °C 1004.5 hPa SW 0.5 km/h 0.2 km/h 94% 0.2 mm W/m2
02:59 12.8 °C 11.8 °C 1004.4 hPa SW 0.9 km/h 0.8 km/h 94% 0.2 mm W/m2
03:04 12.7 °C 11.8 °C 1004.5 hPa SW 1.1 km/h 0.3 km/h 94% 0.2 mm W/m2
03:09 12.7 °C 11.8 °C 1004.5 hPa SW 0.6 km/h 1.1 km/h 94% 0.2 mm W/m2
03:14 12.7 °C 11.8 °C 1004.4 hPa SW 4.2 km/h 1.4 km/h 94% 0.2 mm W/m2
03:19 12.7 °C 11.8 °C 1004.3 hPa SW 4.4 km/h 1.6 km/h 94% 0.2 mm W/m2
Genderen, Netherlands, EU
Compliments of Weather Underground - 2 mb